Time;durP1;ratioP1;P1;durP2;ratioP2;P2;SDS_P1;SDS_P2;PMS_P1;PMS_P2;Temp;Humidity;BMP_temperature;BMP_pressure;BME280_temperature;BME280_humidity;BME280_pressure;Samples;Min_cycle;Max_cycle;Signal;HPM_P1;HPM_P2
2024/03/20 00:02:21;;;;;;;17.15;6.65;;;;;;;;;;5011394;28;20487;-64
2024/03/20 00:04:47;;;;;;;15.38;5.65;;;;;;;;;;5011398;28;20042;-64
2024/03/20 00:07:14;;;;;;;19.65;7.60;;;;;;;;;;5007688;28;20049;-64
2024/03/20 00:09:41;;;;;;;12.02;6.00;;;;;;;;;;5012497;28;20053;-64
2024/03/20 00:12:08;;;;;;;14.10;6.35;;;;;;;;;;5005250;28;20042;-64
2024/03/20 00:14:34;;;;;;;13.85;6.40;;;;;;;;;;5014234;28;20115;-64
2024/03/20 00:17:02;;;;;;;19.27;6.07;;;;;;;;;;5022960;28;20124;-64
2024/03/20 00:19:28;;;;;;;16.33;5.90;;;;;;;;;;5024668;28;20150;-63
2024/03/20 00:21:54;;;;;;;15.85;6.00;;;;;;;;;;5021929;28;20060;-64
2024/03/20 00:24:21;;;;;;;19.20;7.03;;;;;;;;;;5017633;28;20053;-64
2024/03/20 00:26:47;;;;;;;17.05;6.65;;;;;;;;;;5020187;28;20046;-63
2024/03/20 00:29:15;;;;;;;16.83;6.00;;;;;;;;;;5011981;28;20443;-64
2024/03/20 00:31:42;;;;;;;17.15;5.93;;;;;;;;;;5030956;28;20046;-64
2024/03/20 00:34:09;;;;;;;13.95;6.93;;;;;;;;;;5016405;28;20042;-64
2024/03/20 00:36:35;;;;;;;16.08;5.78;;;;;;;;;;5012839;28;20090;-64
2024/03/20 00:39:01;;;;;;;13.43;6.00;;;;;;;;;;5014770;28;20157;-64
2024/03/20 00:41:27;;;;;;;15.23;6.00;;;;;;;;;;5009641;28;20121;-64
2024/03/20 00:43:53;;;;;;;17.73;5.75;;;;;;;;;;5027826;28;20049;-64
2024/03/20 00:46:20;;;;;;;17.40;5.88;;;;;;;;;;5021801;28;20477;-64
2024/03/20 00:48:46;;;;;;;17.63;6.35;;;;;;;;;;5008979;28;21652;-64
2024/03/20 00:51:12;;;;;;;13.95;5.97;;;;;;;;;;5011876;28;20105;-64
2024/03/20 00:53:38;;;;;;;14.38;6.13;;;;;;;;;;5014575;28;20127;-64
2024/03/20 00:56:05;;;;;;;14.00;6.00;;;;;;;;;;4998680;28;20737;-64
2024/03/20 00:58:32;;;;;;;13.25;6.13;;;;;;;;;;4999025;28;20057;-64
2024/03/20 01:00:59;;;;;;;12.90;5.85;;;;;;;;;;5008599;28;20090;-64
2024/03/20 01:03:25;;;;;;;15.60;5.80;;;;;;;;;;5013774;28;20100;-64
2024/03/20 01:05:51;;;;;;;12.85;6.03;;;;;;;;;;5009848;28;20056;-64
2024/03/20 01:08:18;;;;;;;13.13;5.93;;;;;;;;;;5019058;28;20043;-64
2024/03/20 01:10:45;;;;;;;17.40;7.13;;;;;;;;;;5008841;28;20049;-64
2024/03/20 01:13:11;;;;;;;20.60;6.78;;;;;;;;;;5016400;28;20049;-64
2024/03/20 01:15:37;;;;;;;21.67;6.15;;;;;;;;;;5010918;28;20064;-64
2024/03/20 01:18:05;;;;;;;13.60;6.00;;;;;;;;;;5011346;28;20045;-64
2024/03/20 01:20:31;;;;;;;18.77;7.18;;;;;;;;;;5015376;28;20074;-64
2024/03/20 01:22:58;;;;;;;21.75;7.63;;;;;;;;;;5011452;28;20395;-64
2024/03/20 01:25:25;;;;;;;19.50;6.80;;;;;;;;;;5013781;28;20057;-64
2024/03/20 01:27:51;;;;;;;18.83;7.25;;;;;;;;;;5014794;28;20049;-63
2024/03/20 01:30:17;;;;;;;18.42;6.85;;;;;;;;;;5014074;28;20442;-65
2024/03/20 01:32:43;;;;;;;14.38;6.78;;;;;;;;;;5016886;28;20072;-64
2024/03/20 01:35:09;;;;;;;16.23;6.85;;;;;;;;;;5010094;28;20117;-64
2024/03/20 01:37:36;;;;;;;17.30;7.45;;;;;;;;;;5012393;28;20046;-64
2024/03/20 01:40:02;;;;;;;20.25;7.95;;;;;;;;;;5011770;28;20577;-64
2024/03/20 01:42:28;;;;;;;17.90;7.00;;;;;;;;;;5012892;28;20042;-64
2024/03/20 01:45:10;;;;;;;17.60;8.15;;;;;;;;;;5015509;28;20048;-64
2024/03/20 01:47:36;;;;;;;19.40;8.52;;;;;;;;;;5016751;28;20042;-64
2024/03/20 01:50:02;;;;;;;18.17;7.18;;;;;;;;;;5008242;28;20089;-64
2024/03/20 01:52:28;;;;;;;21.35;8.15;;;;;;;;;;5013601;28;20129;-64
2024/03/20 01:54:54;;;;;;;16.23;8.23;;;;;;;;;;5014789;28;20119;-64
2024/03/20 01:57:21;;;;;;;21.00;8.02;;;;;;;;;;5020925;28;20038;-64
2024/03/20 01:59:47;;;;;;;18.55;8.82;;;;;;;;;;5013145;28;20046;-64
2024/03/20 02:02:13;;;;;;;21.15;7.35;;;;;;;;;;5023796;28;20083;-64
2024/03/20 02:04:40;;;;;;;19.95;7.32;;;;;;;;;;5009551;28;20072;-64
2024/03/20 02:07:06;;;;;;;19.33;7.32;;;;;;;;;;5012315;28;20056;-64
2024/03/20 02:09:32;;;;;;;17.73;7.75;;;;;;;;;;5007757;28;20084;-64
2024/03/20 02:11:58;;;;;;;19.73;7.40;;;;;;;;;;5006982;28;20080;-64
2024/03/20 02:14:24;;;;;;;18.77;7.50;;;;;;;;;;5009925;28;21961;-64
2024/03/20 02:16:51;;;;;;;18.00;7.97;;;;;;;;;;5016941;28;20103;-64
2024/03/20 02:19:17;;;;;;;17.88;7.93;;;;;;;;;;5011368;28;20049;-63
2024/03/20 02:21:43;;;;;;;17.63;9.55;;;;;;;;;;5014112;28;20034;-63
2024/03/20 02:24:09;;;;;;;18.30;8.43;;;;;;;;;;5008175;28;20052;-64
2024/03/20 02:26:35;;;;;;;21.90;7.93;;;;;;;;;;5010992;28;20132;-64
2024/03/20 02:29:02;;;;;;;21.23;8.68;;;;;;;;;;5012162;28;20103;-64
2024/03/20 02:31:28;;;;;;;21.73;8.52;;;;;;;;;;5011531;28;20038;-64
2024/03/20 02:33:55;;;;;;;17.10;8.30;;;;;;;;;;5011552;28;20051;-64
2024/03/20 02:36:21;;;;;;;16.35;8.02;;;;;;;;;;5012026;28;20072;-64
2024/03/20 02:38:47;;;;;;;21.73;8.68;;;;;;;;;;5017049;28;20065;-65
2024/03/20 02:41:13;;;;;;;19.98;8.70;;;;;;;;;;5013972;28;20045;-64
2024/03/20 02:43:39;;;;;;;22.65;8.23;;;;;;;;;;5019704;28;20082;-64
2024/03/20 02:46:05;;;;;;;20.20;8.07;;;;;;;;;;5014775;28;20064;-64
2024/03/20 02:48:34;;;;;;;15.75;7.97;;;;;;;;;;5021218;28;20393;-64
2024/03/20 02:51:00;;;;;;;24.15;9.10;;;;;;;;;;5023919;28;20046;-64
2024/03/20 02:53:26;;;;;;;21.98;8.73;;;;;;;;;;5022173;28;20546;-64
2024/03/20 02:55:52;;;;;;;18.48;8.65;;;;;;;;;;5018925;28;20065;-64
2024/03/20 02:58:18;;;;;;;19.63;8.25;;;;;;;;;;5022451;28;20125;-64
2024/03/20 03:00:45;;;;;;;20.33;8.52;;;;;;;;;;5023025;28;20041;-64
2024/03/20 03:05:57;;;;;;;17.25;8.32;;;;;;;;;;4968225;28;20477;-65
2024/03/20 03:08:23;;;;;;;18.40;8.32;;;;;;;;;;4969620;28;20134;-65
2024/03/20 03:10:49;;;;;;;19.70;9.77;;;;;;;;;;4971914;28;20038;-64
2024/03/20 03:13:15;;;;;;;19.02;8.30;;;;;;;;;;4965867;28;20485;-65
2024/03/20 03:15:42;;;;;;;18.92;8.60;;;;;;;;;;4966479;28;20057;-65
2024/03/20 03:18:08;;;;;;;25.85;9.50;;;;;;;;;;4943373;28;20414;-65
2024/03/20 03:20:34;;;;;;;18.80;9.35;;;;;;;;;;4950459;28;20095;-66
2024/03/20 03:23:00;;;;;;;20.02;8.82;;;;;;;;;;4968892;28;20045;-65
2024/03/20 03:25:26;;;;;;;19.55;8.88;;;;;;;;;;4969388;28;20053;-65
2024/03/20 03:27:52;;;;;;;18.20;9.05;;;;;;;;;;4968253;28;20062;-65
2024/03/20 03:30:19;;;;;;;26.42;10.43;;;;;;;;;;4952113;28;20141;-65
2024/03/20 03:32:45;;;;;;;23.38;10.93;;;;;;;;;;4950963;28;20054;-65
2024/03/20 03:35:11;;;;;;;23.08;9.73;;;;;;;;;;4965045;28;20122;-65
2024/03/20 03:37:38;;;;;;;21.63;10.10;;;;;;;;;;4952483;28;20170;-65
2024/03/20 03:40:06;;;;;;;22.90;9.75;;;;;;;;;;4949014;28;20053;-65
2024/03/20 03:42:33;;;;;;;22.52;10.85;;;;;;;;;;4950722;28;20062;-65
2024/03/20 03:44:59;;;;;;;22.67;9.23;;;;;;;;;;4969361;28;20502;-65
2024/03/20 03:47:28;;;;;;;26.77;10.77;;;;;;;;;;4950494;28;20498;-65
2024/03/20 03:49:54;;;;;;;25.67;10.30;;;;;;;;;;4970018;28;20039;-65
2024/03/20 03:52:20;;;;;;;20.23;10.45;;;;;;;;;;4951977;28;20065;-65
2024/03/20 03:54:46;;;;;;;23.70;10.13;;;;;;;;;;4953888;28;20043;-64
2024/03/20 03:57:12;;;;;;;21.35;9.55;;;;;;;;;;4952076;28;20397;-64
2024/03/20 03:59:38;;;;;;;20.92;10.63;;;;;;;;;;4969487;28;20081;-64
2024/03/20 04:02:05;;;;;;;20.58;10.07;;;;;;;;;;4969195;28;20098;-64
2024/03/20 04:04:31;;;;;;;22.85;8.85;;;;;;;;;;4969595;28;20099;-65
2024/03/20 04:06:57;;;;;;;16.98;9.43;;;;;;;;;;4969213;28;20051;-64
2024/03/20 04:09:25;;;;;;;20.42;9.75;;;;;;;;;;4950712;28;20047;-64
2024/03/20 04:11:51;;;;;;;22.50;10.45;;;;;;;;;;4969237;28;20110;-64
2024/03/20 04:14:17;;;;;;;24.60;10.35;;;;;;;;;;4952240;28;20046;-65
2024/03/20 04:16:43;;;;;;;22.02;11.32;;;;;;;;;;4950341;28;20054;-64
2024/03/20 04:19:10;;;;;;;23.52;11.10;;;;;;;;;;4952173;28;20047;-65
2024/03/20 04:21:36;;;;;;;21.05;10.60;;;;;;;;;;4949148;28;20046;-65
2024/03/20 04:24:02;;;;;;;25.63;11.48;;;;;;;;;;4938947;28;20206;-65
2024/03/20 04:26:29;;;;;;;28.17;11.93;;;;;;;;;;4959449;28;20051;-64
2024/03/20 04:28:55;;;;;;;24.42;11.75;;;;;;;;;;4947396;28;20047;-64
2024/03/20 04:31:21;;;;;;;27.73;11.95;;;;;;;;;;4956352;28;20046;-65
2024/03/20 04:33:47;;;;;;;23.25;12.25;;;;;;;;;;4948552;28;20077;-65
2024/03/20 04:36:13;;;;;;;28.42;12.85;;;;;;;;;;4945766;28;20062;-66
2024/03/20 04:38:40;;;;;;;24.35;12.50;;;;;;;;;;4965206;28;20482;-65
2024/03/20 04:41:08;;;;;;;23.77;12.05;;;;;;;;;;4965115;28;20401;-66
2024/03/20 04:43:34;;;;;;;25.50;12.40;;;;;;;;;;4963695;28;20043;-66
2024/03/20 04:46:00;;;;;;;24.83;12.40;;;;;;;;;;4964562;28;20458;-65
2024/03/20 04:48:26;;;;;;;26.85;12.50;;;;;;;;;;4947290;28;20054;-66
2024/03/20 04:50:53;;;;;;;22.73;12.98;;;;;;;;;;4963712;28;20049;-66
2024/03/20 04:53:19;;;;;;;28.35;12.52;;;;;;;;;;4964611;28;20058;-65
2024/03/20 04:55:46;;;;;;;26.00;12.50;;;;;;;;;;4964519;28;20568;-65
2024/03/20 04:58:13;;;;;;;34.03;11.20;;;;;;;;;;4963775;28;20042;-65
2024/03/20 05:00:39;;;;;;;24.20;11.52;;;;;;;;;;4966929;28;20458;-65
2024/03/20 05:03:05;;;;;;;26.30;13.48;;;;;;;;;;4951788;28;20054;-66
2024/03/20 05:05:32;;;;;;;23.05;11.65;;;;;;;;;;4935551;28;20130;-66
2024/03/20 05:07:58;;;;;;;22.13;12.00;;;;;;;;;;4972037;28;20458;-65
2024/03/20 05:10:24;;;;;;;24.27;12.00;;;;;;;;;;4971947;28;20042;-66
2024/03/20 05:12:50;;;;;;;24.50;11.38;;;;;;;;;;4955017;28;20062;-65
2024/03/20 05:15:16;;;;;;;25.73;12.63;;;;;;;;;;4955327;28;20058;-65
2024/03/20 05:17:43;;;;;;;27.58;13.50;;;;;;;;;;4974070;28;20069;-65
2024/03/20 05:20:10;;;;;;;37.15;13.50;;;;;;;;;;4970277;28;20043;-66
2024/03/20 05:22:36;;;;;;;27.65;15.20;;;;;;;;;;4954748;28;20335;-66
2024/03/20 05:25:03;;;;;;;29.65;16.42;;;;;;;;;;4970484;28;20104;-65
2024/03/20 05:27:29;;;;;;;39.40;15.98;;;;;;;;;;4938436;28;20055;-65
2024/03/20 05:29:55;;;;;;;27.95;14.82;;;;;;;;;;4956601;28;20156;-66
2024/03/20 05:32:21;;;;;;;29.48;15.32;;;;;;;;;;4970941;28;20391;-66
2024/03/20 05:34:48;;;;;;;26.65;14.25;;;;;;;;;;4967628;28;20046;-66
2024/03/20 05:37:14;;;;;;;29.73;13.23;;;;;;;;;;4949025;28;20507;-67
2024/03/20 05:39:40;;;;;;;33.58;13.55;;;;;;;;;;4949981;28;20068;-65
2024/03/20 05:42:06;;;;;;;28.75;12.68;;;;;;;;;;4952142;28;20059;-66
2024/03/20 05:44:32;;;;;;;29.25;14.30;;;;;;;;;;4952109;28;20069;-66
2024/03/20 05:46:59;;;;;;;35.38;14.32;;;;;;;;;;4969501;28;20081;-66
2024/03/20 05:49:26;;;;;;;32.95;14.48;;;;;;;;;;4953453;28;20090;-65
2024/03/20 05:51:52;;;;;;;32.00;16.58;;;;;;;;;;4952052;28;20079;-65
2024/03/20 05:54:18;;;;;;;34.13;15.00;;;;;;;;;;4967544;28;20442;-66
2024/03/20 05:56:45;;;;;;;31.95;15.25;;;;;;;;;;4971521;28;20035;-65
2024/03/20 05:59:13;;;;;;;27.17;15.10;;;;;;;;;;4972497;28;20039;-66
2024/03/20 06:01:39;;;;;;;31.27;15.77;;;;;;;;;;4969428;28;20066;-66
2024/03/20 06:04:05;;;;;;;32.38;15.38;;;;;;;;;;4953221;28;20057;-65
2024/03/20 06:06:31;;;;;;;30.42;15.20;;;;;;;;;;4964121;28;20059;-66
2024/03/20 06:08:58;;;;;;;27.50;15.85;;;;;;;;;;4948876;28;20082;-66
2024/03/20 06:11:24;;;;;;;36.30;18.30;;;;;;;;;;4965965;28;20087;-66
2024/03/20 06:13:50;;;;;;;40.60;18.70;;;;;;;;;;4950123;28;20055;-65
2024/03/20 06:16:16;;;;;;;36.33;19.45;;;;;;;;;;4932863;29;20047;-65
2024/03/20 06:18:43;;;;;;;39.28;18.85;;;;;;;;;;4954028;28;20031;-65
2024/03/20 06:21:10;;;;;;;38.28;18.30;;;;;;;;;;4963443;28;20047;-65
2024/03/20 06:23:37;;;;;;;36.47;18.92;;;;;;;;;;4949195;28;20059;-65
2024/03/20 06:26:04;;;;;;;37.75;19.50;;;;;;;;;;4949323;28;20043;-65
2024/03/20 06:28:30;;;;;;;40.83;20.63;;;;;;;;;;4950356;28;20087;-65
2024/03/20 06:30:57;;;;;;;39.95;19.83;;;;;;;;;;4947288;28;20050;-65
2024/03/20 06:33:24;;;;;;;37.97;19.50;;;;;;;;;;4965620;28;20062;-66
2024/03/20 06:35:50;;;;;;;39.08;18.98;;;;;;;;;;4949076;28;20060;-65
2024/03/20 06:38:18;;;;;;;35.50;19.10;;;;;;;;;;4950326;28;20040;-66
2024/03/20 06:40:44;;;;;;;37.22;20.00;;;;;;;;;;4950762;28;20445;-65
2024/03/20 06:43:11;;;;;;;41.03;19.90;;;;;;;;;;4950412;28;20047;-66
2024/03/20 06:45:47;;;;;;;43.60;20.45;;;;;;;;;;4950332;28;20171;-66
2024/03/20 06:48:13;;;;;;;39.22;19.42;;;;;;;;;;4950002;28;20043;-65
2024/03/20 06:50:40;;;;;;;41.85;19.75;;;;;;;;;;4949910;28;20071;-65
2024/03/20 06:53:06;;;;;;;40.70;20.70;;;;;;;;;;4949713;28;20047;-65
2024/03/20 06:55:34;;;;;;;43.55;19.77;;;;;;;;;;4950631;28;20408;-65
2024/03/20 06:58:01;;;;;;;40.50;20.13;;;;;;;;;;4947477;28;20455;-65
2024/03/20 07:00:28;;;;;;;44.42;18.63;;;;;;;;;;4944972;28;20163;-65
2024/03/20 07:02:56;;;;;;;38.65;19.02;;;;;;;;;;4949436;28;20126;-65
2024/03/20 07:05:22;;;;;;;33.70;17.92;;;;;;;;;;4962456;28;20059;-66
2024/03/20 07:07:49;;;;;;;37.97;18.17;;;;;;;;;;4949867;28;20466;-65
2024/03/20 07:10:15;;;;;;;38.72;19.70;;;;;;;;;;4944155;28;20450;-66
2024/03/20 07:12:41;;;;;;;41.80;18.52;;;;;;;;;;4948861;28;20054;-66
2024/03/20 07:15:08;;;;;;;40.65;17.83;;;;;;;;;;4950919;28;20376;-66
2024/03/20 07:17:40;;;;;;;41.60;18.33;;;;;;;;;;4949425;28;20467;-65
2024/03/20 07:20:09;;;;;;;34.75;19.65;;;;;;;;;;4947885;28;20407;-65
2024/03/20 07:22:35;;;;;;;44.42;19.27;;;;;;;;;;4947828;28;20451;-66
2024/03/20 07:25:02;;;;;;;39.20;18.73;;;;;;;;;;4948276;28;20055;-66
2024/03/20 07:27:29;;;;;;;38.38;18.73;;;;;;;;;;4963341;28;20082;-65
2024/03/20 07:29:55;;;;;;;42.25;20.17;;;;;;;;;;4943502;28;20054;-64
2024/03/20 07:32:21;;;;;;;36.63;19.48;;;;;;;;;;4950539;28;20119;-65
2024/03/20 07:34:47;;;;;;;36.55;19.08;;;;;;;;;;4950395;28;20094;-65
2024/03/20 07:37:14;;;;;;;39.35;18.63;;;;;;;;;;4956881;28;20047;-65
2024/03/20 07:39:41;;;;;;;38.38;18.45;;;;;;;;;;4950573;28;20093;-66
2024/03/20 07:42:09;;;;;;;34.25;18.08;;;;;;;;;;4947226;28;20048;-66
2024/03/20 07:44:36;;;;;;;33.17;15.95;;;;;;;;;;4947217;28;20085;-65
2024/03/20 07:47:03;;;;;;;32.45;16.15;;;;;;;;;;4944827;28;20122;-65
2024/03/20 07:49:29;;;;;;;30.52;15.32;;;;;;;;;;4949284;28;20171;-64
2024/03/20 07:51:56;;;;;;;29.27;13.95;;;;;;;;;;4949348;28;20125;-65
2024/03/20 07:54:24;;;;;;;32.83;15.18;;;;;;;;;;4939345;28;20106;-66
2024/03/20 07:56:54;;;;;;;28.02;13.98;;;;;;;;;;4939604;28;20039;-65
2024/03/20 07:59:21;;;;;;;30.38;15.55;;;;;;;;;;4944603;28;20391;-65
2024/03/20 08:01:47;;;;;;;34.85;15.20;;;;;;;;;;4941027;28;20447;-80
2024/03/20 08:04:14;;;;;;;30.63;14.75;;;;;;;;;;4942939;28;20058;-67
2024/03/20 08:06:40;;;;;;;29.92;15.25;;;;;;;;;;4957349;28;20043;-65
2024/03/20 08:09:07;;;;;;;37.83;18.20;;;;;;;;;;4963203;28;20183;-65
2024/03/20 08:11:34;;;;;;;33.47;17.52;;;;;;;;;;4962603;28;20459;-66
2024/03/20 08:14:07;;;;;;;27.88;17.50;;;;;;;;;;4964204;28;20047;-66
2024/03/20 08:16:33;;;;;;;;;;;;;;;;;;4947723;28;20572;-65
2024/03/20 08:19:00;;;;;;;32.88;19.08;;;;;;;;;;4962197;28;19949;-66
2024/03/20 08:21:26;;;;;;;38.85;20.75;;;;;;;;;;4961952;28;20473;-66
2024/03/20 08:23:53;;;;;;;35.30;19.10;;;;;;;;;;4961087;28;20066;-65
2024/03/20 08:26:19;;;;;;;34.05;19.65;;;;;;;;;;4945289;28;20130;-66
2024/03/20 08:28:46;;;;;;;33.75;19.23;;;;;;;;;;4946501;28;20043;-66
2024/03/20 08:31:12;;;;;;;33.53;18.05;;;;;;;;;;4963012;28;20118;-65
2024/03/20 08:33:38;;;;;;;32.38;18.17;;;;;;;;;;4965352;28;20118;-66
2024/03/20 08:36:08;;;;;;;38.17;17.70;;;;;;;;;;4949264;28;21199;-65
2024/03/20 08:38:36;;;;;;;34.15;18.42;;;;;;;;;;4951407;28;20125;-65
2024/03/20 08:41:03;;;;;;;33.40;18.70;;;;;;;;;;4950133;28;20058;-66
2024/03/20 08:43:30;;;;;;;36.60;19.17;;;;;;;;;;4965410;28;20470;-66
2024/03/20 08:45:56;;;;;;;30.25;18.10;;;;;;;;;;4965906;28;20500;-66
2024/03/20 08:48:23;;;;;;;39.25;17.83;;;;;;;;;;4966645;28;20038;-66
2024/03/20 08:50:50;;;;;;;33.88;19.17;;;;;;;;;;4965603;28;20144;-65
2024/03/20 08:53:16;;;;;;;33.47;18.80;;;;;;;;;;4966177;28;20050;-66
2024/03/20 08:55:42;;;;;;;29.27;16.23;;;;;;;;;;4948800;28;20105;-65
2024/03/20 08:58:08;;;;;;;26.70;15.40;;;;;;;;;;4950136;28;20049;-66
2024/03/20 09:00:35;;;;;;;35.58;17.38;;;;;;;;;;4962932;28;20209;-65
2024/03/20 09:03:03;;;;;;;29.80;15.82;;;;;;;;;;4965827;28;20046;-66
2024/03/20 09:05:29;;;;;;;30.40;15.68;;;;;;;;;;4946126;28;20078;-66
2024/03/20 09:07:57;;;;;;;34.90;16.20;;;;;;;;;;4946421;28;20050;-66
2024/03/20 09:10:23;;;;;;;29.98;15.32;;;;;;;;;;4947348;28;20051;-66
2024/03/20 09:12:49;;;;;;;28.20;15.45;;;;;;;;;;4965560;28;20049;-65
2024/03/20 09:15:15;;;;;;;29.48;16.20;;;;;;;;;;4954859;28;20097;-65
2024/03/20 09:17:41;;;;;;;29.67;16.98;;;;;;;;;;4949935;28;20047;-65
2024/03/20 09:20:15;;;;;;;32.78;16.30;;;;;;;;;;4948717;28;20057;-66
2024/03/20 09:22:43;;;;;;;31.90;17.83;;;;;;;;;;4964771;28;20042;-66
2024/03/20 09:25:09;;;;;;;32.15;17.92;;;;;;;;;;4967856;28;20122;-66
2024/03/20 09:27:36;;;;;;;32.33;18.58;;;;;;;;;;4948192;28;21384;-66
2024/03/20 09:30:02;;;;;;;31.23;18.35;;;;;;;;;;4967454;28;20042;-66
2024/03/20 09:32:30;;;;;;;29.73;19.05;;;;;;;;;;4967687;28;20251;-66
2024/03/20 09:35:03;;;;;;;31.50;18.45;;;;;;;;;;4947463;28;20054;-66
2024/03/20 09:37:30;;;;;;;34.45;21.38;;;;;;;;;;4947624;28;20069;-66
2024/03/20 09:39:58;;;;;;;34.72;18.67;;;;;;;;;;4964559;28;20063;-66
2024/03/20 09:42:25;;;;;;;31.58;18.27;;;;;;;;;;4965460;28;20051;-66
2024/03/20 09:44:51;;;;;;;35.30;19.52;;;;;;;;;;4965397;28;20070;-65
2024/03/20 09:47:17;;;;;;;32.85;20.60;;;;;;;;;;4963362;28;20038;-66
2024/03/20 09:49:44;;;;;;;35.63;19.83;;;;;;;;;;4966050;28;20193;-66
2024/03/20 09:52:12;;;;;;;33.00;20.25;;;;;;;;;;4962812;28;20059;-66
2024/03/20 09:54:39;;;;;;;32.15;20.50;;;;;;;;;;4966979;28;20402;-66
2024/03/20 09:57:06;;;;;;;36.83;20.75;;;;;;;;;;4966940;28;20047;-66
2024/03/20 09:59:32;;;;;;;31.63;20.52;;;;;;;;;;4949276;28;20043;-66
2024/03/20 10:01:58;;;;;;;32.47;20.75;;;;;;;;;;4964882;28;20148;-66
2024/03/20 10:04:28;;;;;;;33.17;19.83;;;;;;;;;;4963783;28;20476;-66
2024/03/20 10:06:56;;;;;;;35.38;21.35;;;;;;;;;;4964949;28;20054;-66
2024/03/20 10:09:26;;;;;;;34.17;20.48;;;;;;;;;;4965207;28;20055;-66
2024/03/20 10:11:53;;;;;;;38.88;22.27;;;;;;;;;;4965346;28;20042;-66
2024/03/20 10:14:22;;;;;;;33.47;19.77;;;;;;;;;;4964397;28;20170;-66
2024/03/20 10:16:48;;;;;;;31.85;21.05;;;;;;;;;;4948810;28;20038;-66
2024/03/20 10:19:14;;;;;;;36.83;21.48;;;;;;;;;;4966803;28;20128;-66
2024/03/20 10:21:44;;;;;;;34.25;22.10;;;;;;;;;;4949043;28;20046;-66
2024/03/20 10:24:13;;;;;;;37.45;21.75;;;;;;;;;;4948370;28;20550;-66
2024/03/20 10:26:39;;;;;;;32.95;21.73;;;;;;;;;;4943548;28;20554;-66
2024/03/20 10:29:08;;;;;;;32.35;20.98;;;;;;;;;;4949826;28;20049;-66
2024/03/20 10:31:35;;;;;;;35.33;21.13;;;;;;;;;;4949401;28;20061;-65
2024/03/20 10:34:03;;;;;;;29.45;19.17;;;;;;;;;;4964282;28;20082;-65
2024/03/20 10:36:29;;;;;;;31.20;18.83;;;;;;;;;;4964678;28;20073;-66
2024/03/20 10:38:57;;;;;;;27.15;17.42;;;;;;;;;;4964099;28;20042;-66
2024/03/20 10:41:23;;;;;;;26.85;18.83;;;;;;;;;;4929727;28;20573;-66
2024/03/20 10:43:50;;;;;;;33.15;19.85;;;;;;;;;;4948999;28;20382;-66
2024/03/20 10:46:17;;;;;;;28.02;19.40;;;;;;;;;;4965867;28;20623;-66
2024/03/20 10:48:43;;;;;;;29.10;18.65;;;;;;;;;;4962681;28;20129;-66
2024/03/20 10:51:14;;;;;;;31.80;18.48;;;;;;;;;;4947274;28;20403;-66
2024/03/20 10:53:41;;;;;;;30.80;18.02;;;;;;;;;;4949002;28;20138;-66
2024/03/20 10:56:07;;;;;;;26.50;15.20;;;;;;;;;;4961731;28;20126;-66
2024/03/20 10:58:33;;;;;;;26.33;14.98;;;;;;;;;;4947288;28;20087;-66
2024/03/20 11:01:00;;;;;;;22.48;14.63;;;;;;;;;;4947577;28;20070;-66
2024/03/20 11:03:39;;;;;;;20.48;13.98;;;;;;;;;;4947688;28;20047;-66
2024/03/20 11:06:24;;;;;;;22.90;14.52;;;;;;;;;;4950298;28;20062;-66
2024/03/20 11:08:53;;;;;;;21.95;14.85;;;;;;;;;;4959926;28;20050;-66
2024/03/20 11:11:19;;;;;;;26.33;15.23;;;;;;;;;;4948147;28;20493;-66
2024/03/20 11:13:48;;;;;;;26.95;17.55;;;;;;;;;;4964476;28;20043;-66
2024/03/20 11:16:22;;;;;;;29.17;15.55;;;;;;;;;;4948110;28;20141;-66
2024/03/20 11:18:54;;;;;;;30.95;16.10;;;;;;;;;;4946111;28;20066;-66
2024/03/20 11:21:21;;;;;;;27.90;17.52;;;;;;;;;;4965168;28;20170;-66
2024/03/20 11:23:48;;;;;;;34.55;18.70;;;;;;;;;;4964450;28;20395;-66
2024/03/20 11:26:14;;;;;;;28.05;17.63;;;;;;;;;;4964522;28;20145;-66
2024/03/20 11:28:42;;;;;;;27.50;16.95;;;;;;;;;;4949104;28;20062;-65
2024/03/20 11:31:08;;;;;;;32.47;18.83;;;;;;;;;;4963606;28;20057;-66
2024/03/20 11:33:35;;;;;;;30.30;16.17;;;;;;;;;;4962252;28;20401;-66
2024/03/20 11:36:01;;;;;;;26.20;17.40;;;;;;;;;;4949462;28;20082;-66
2024/03/20 11:38:30;;;;;;;28.77;16.80;;;;;;;;;;4964933;28;20491;-66
2024/03/20 11:40:58;;;;;;;26.30;14.98;;;;;;;;;;4947212;28;20061;-67
2024/03/20 11:43:24;;;;;;;22.63;15.00;;;;;;;;;;4965795;28;20073;-66
2024/03/20 11:45:51;;;;;;;23.27;14.13;;;;;;;;;;4946292;28;20051;-67
2024/03/20 11:48:17;;;;;;;21.15;13.88;;;;;;;;;;4965708;28;20058;-67
2024/03/20 11:50:43;;;;;;;23.08;14.23;;;;;;;;;;4948274;28;20485;-67
2024/03/20 11:53:14;;;;;;;22.13;14.35;;;;;;;;;;4963840;28;20047;-67
2024/03/20 11:55:41;;;;;;;23.30;12.02;;;;;;;;;;4964615;28;20214;-67
2024/03/20 11:58:12;;;;;;;19.58;12.13;;;;;;;;;;4963691;28;20051;-66
2024/03/20 12:00:39;;;;;;;19.63;10.95;;;;;;;;;;4947493;28;20116;-66
2024/03/20 12:03:19;;;;;;;21.48;12.00;;;;;;;;;;4948032;28;20051;-66
2024/03/20 12:05:45;;;;;;;20.30;12.02;;;;;;;;;;4949101;28;20054;-66
2024/03/20 12:08:15;;;;;;;25.50;12.65;;;;;;;;;;4966046;28;20077;-66
2024/03/20 12:10:42;;;;;;;18.88;13.23;;;;;;;;;;4967411;28;20046;-65
2024/03/20 12:13:10;;;;;;;20.48;12.75;;;;;;;;;;4961589;28;20204;-65
2024/03/20 12:15:37;;;;;;;20.73;13.02;;;;;;;;;;4949633;28;20177;-65
2024/03/20 12:18:03;;;;;;;20.88;11.63;;;;;;;;;;4967238;28;20135;-65
2024/03/20 12:20:31;;;;;;;22.55;12.10;;;;;;;;;;4949945;28;20053;-65
2024/03/20 12:22:58;;;;;;;22.55;13.63;;;;;;;;;;4967702;28;20046;-65
2024/03/20 12:25:25;;;;;;;17.90;10.88;;;;;;;;;;4967304;28;20074;-65
2024/03/20 12:27:51;;;;;;;17.58;12.30;;;;;;;;;;4949666;28;20078;-65
2024/03/20 12:30:17;;;;;;;15.30;10.10;;;;;;;;;;4967580;28;20054;-65
2024/03/20 12:32:44;;;;;;;15.77;9.50;;;;;;;;;;4936475;28;20450;-65
2024/03/20 12:35:11;;;;;;;18.92;9.95;;;;;;;;;;4966591;28;20137;-65
2024/03/20 12:37:38;;;;;;;19.05;9.77;;;;;;;;;;4966868;28;20057;-65
2024/03/20 12:40:06;;;;;;;14.43;9.27;;;;;;;;;;4940232;28;20053;-65
2024/03/20 12:42:32;;;;;;;13.60;9.27;;;;;;;;;;4951817;28;20130;-65
2024/03/20 12:44:58;;;;;;;16.20;9.63;;;;;;;;;;4951329;28;20100;-65
2024/03/20 12:47:25;;;;;;;15.82;10.18;;;;;;;;;;4945254;28;20883;-65
2024/03/20 12:49:55;;;;;;;16.77;9.60;;;;;;;;;;4954341;28;20078;-65
2024/03/20 12:52:21;;;;;;;17.27;11.65;;;;;;;;;;4968572;28;20486;-66
2024/03/20 12:54:49;;;;;;;19.63;14.23;;;;;;;;;;4963763;28;20053;-66
2024/03/20 12:57:15;;;;;;;26.48;15.38;;;;;;;;;;4965988;28;20047;-65
2024/03/20 12:59:42;;;;;;;19.45;14.48;;;;;;;;;;4967243;28;20054;-65
2024/03/20 13:02:15;;;;;;;20.70;14.43;;;;;;;;;;4966212;28;20050;-65
2024/03/20 13:04:41;;;;;;;22.17;15.33;;;;;;;;;;4966754;28;21381;-65
2024/03/20 13:07:10;;;;;;;23.38;16.35;;;;;;;;;;4953089;28;20805;-65
2024/03/20 13:09:36;;;;;;;25.63;17.00;;;;;;;;;;4950541;28;20053;-66
2024/03/20 13:12:02;;;;;;;23.52;16.80;;;;;;;;;;4953719;28;20097;-65
2024/03/20 13:14:30;;;;;;;22.63;17.17;;;;;;;;;;4951421;28;20505;-65
2024/03/20 13:16:57;;;;;;;22.85;17.73;;;;;;;;;;4965232;28;20441;-65
2024/03/20 13:19:26;;;;;;;24.85;18.05;;;;;;;;;;4948267;28;20047;-65
2024/03/20 13:21:52;;;;;;;27.13;19.10;;;;;;;;;;4961685;28;20054;-65
2024/03/20 13:24:18;;;;;;;28.10;20.08;;;;;;;;;;4966180;28;20054;-65
2024/03/20 13:26:50;;;;;;;25.08;19.98;;;;;;;;;;4949382;28;20054;-65
2024/03/20 13:29:20;;;;;;;27.42;19.88;;;;;;;;;;4965777;28;20073;-65
2024/03/20 13:31:47;;;;;;;32.28;22.73;;;;;;;;;;4960491;28;20095;-65
2024/03/20 13:34:13;;;;;;;28.38;20.75;;;;;;;;;;4962239;28;20470;-65
2024/03/20 13:36:45;;;;;;;34.35;21.95;;;;;;;;;;4948422;28;20116;-65
2024/03/20 13:39:18;;;;;;;26.73;21.52;;;;;;;;;;4946261;28;20517;-65
2024/03/20 13:44:20;;;;;;;31.73;22.05;;;;;;;;;;4956664;28;20164;-65
2024/03/20 13:46:48;;;;;;;31.20;20.77;;;;;;;;;;4945830;28;20055;-65
2024/03/20 13:49:14;;;;;;;30.42;22.30;;;;;;;;;;4962055;28;20122;-65
2024/03/20 13:51:41;;;;;;;30.55;21.15;;;;;;;;;;4960813;28;20094;-65
2024/03/20 13:54:07;;;;;;;27.70;21.27;;;;;;;;;;4960982;28;20089;-65
2024/03/20 13:56:34;;;;;;;29.65;21.50;;;;;;;;;;4955537;28;20046;-65
2024/03/20 13:59:00;;;;;;;34.33;22.67;;;;;;;;;;4949307;28;20086;-65
2024/03/20 14:01:29;;;;;;;29.45;22.00;;;;;;;;;;4957233;28;20047;-65
2024/03/20 14:03:55;;;;;;;35.53;23.77;;;;;;;;;;4946245;28;20043;-65
2024/03/20 14:06:23;;;;;;;34.03;23.92;;;;;;;;;;4955137;28;20230;-65
2024/03/20 14:08:50;;;;;;;35.30;23.85;;;;;;;;;;4940958;28;20132;-65
2024/03/20 14:11:17;;;;;;;34.95;21.42;;;;;;;;;;4941384;29;20051;-66
2024/03/20 14:13:44;;;;;;;31.95;22.63;;;;;;;;;;4945538;28;20051;-65
2024/03/20 14:16:13;;;;;;;30.48;21.20;;;;;;;;;;4942392;28;20055;-65
2024/03/20 14:18:39;;;;;;;30.25;21.25;;;;;;;;;;4941575;28;20118;-65
2024/03/20 14:21:10;;;;;;;30.30;20.92;;;;;;;;;;4944602;29;20122;-74
2024/03/20 14:23:36;;;;;;;29.23;20.98;;;;;;;;;;4944394;29;20043;-66
2024/03/20 14:26:03;;;;;;;30.60;19.10;;;;;;;;;;4946878;29;20101;-66